Airfield :
LOGIN :

Register | Disclaimer

   EN    FR    IT 

 










Legend :    VFR   Marginal VFR   IFR   Intensive IFR   Very Intensive IFR
Visi :
Ceiling :
>= 8 km
>= 3000ft
5 to 8 km
1000 to 3000 ft
1500m to 5 km
500 to 1000 ft
800 to 1500m
200 to 500 ft
< 800m
< 200 ft
Symbols :   Thunderstorms  Fog  Heavy snow  Heavy precipitations  Wind > 20 kt
SIGMETs :     Misc.  Thunderstorms  Icing  Turbulence  Mountain Waves  Volcanic Ashes







- Airport Elevation : 352 ft
- IATA code : KSD


ESOK - Karlstad

CURRENT METAR :
  • 180620Z 19006KT 140V220 SCT035 16/12 Q1017

EXPIRED METARs :
  • 180550Z 15006KT CAVOK 15/12 Q1016
  • 180520Z 20006KT 170V230 CAVOK 14/12 Q1017
  • 180450Z 20007KT CAVOK 14/12 Q1017
  • 180420Z 18006KT CAVOK 13/12 Q1017
  • 180350Z 19006KT CAVOK 12/11 Q1017

TAF TAF ESOK
Valid from the 18 at 06:00 until the 18 at 15:00 UTC


180530Z 1806/1815 18008KT CAVOK
BECMG 1806/1808 SHRA BKN040CB
PROB40 1808/1812 TS
No reported NOTAMs for that airfield.
1 SIGMET reported for the Sweden FIR (ESAA) :
 
Embedded thunderstorms
ESAA SIGMET 1 VALID 180430/180630 ESSA
ESAA SWEDEN FIR EMBD TS OBS AT 0420Z WI N5807 E01049 - N5824 E01133 - N5754 E01155 - N5737 E01114 - N5807 E01049 TOP FL370 MOV NE NC=



MET'MAP, your aeronautical weather chart ! - Copyright ORBIFLY December 2007 - Disclaimer

ORBIFLY MET'MAP TEAM :

Programming & Development : Alexandra Zaïnal
Concept & Development : Baudouin d'Aumeries
Co-Development & Prog : Marc-Olivier Méhu
Technical & hardware support : Manuel Goepfert

Contact : metmap@orbifly.com




SOURCES & CREDITS :

   NOAA